sensor_id;sensor_type;location;lat;lon;timestamp;P1;durP1;ratioP1;P2;durP2;ratioP2
75156;SDS011;63736;50.076;8.198;2024-03-06T00:01:09;9.23;;;2.80;;
75156;SDS011;63736;50.076;8.198;2024-03-06T00:02:39;4.80;;;1.60;;
75156;SDS011;63736;50.076;8.198;2024-03-06T00:04:10;4.67;;;1.60;;
75156;SDS011;63736;50.076;8.198;2024-03-06T00:05:40;5.23;;;1.70;;
75156;SDS011;63736;50.076;8.198;2024-03-06T00:07:11;3.60;;;1.20;;
75156;SDS011;63736;50.076;8.198;2024-03-06T00:08:41;3.83;;;1.40;;
75156;SDS011;63736;50.076;8.198;2024-03-06T00:10:11;3.92;;;1.30;;
75156;SDS011;63736;50.076;8.198;2024-03-06T00:11:42;4.30;;;1.27;;
75156;SDS011;63736;50.076;8.198;2024-03-06T00:13:12;5.80;;;1.40;;
75156;SDS011;63736;50.076;8.198;2024-03-06T00:14:43;5.35;;;1.23;;
75156;SDS011;63736;50.076;8.198;2024-03-06T00:16:13;5.10;;;1.27;;
75156;SDS011;63736;50.076;8.198;2024-03-06T00:17:44;5.33;;;1.70;;
75156;SDS011;63736;50.076;8.198;2024-03-06T00:19:14;8.83;;;3.13;;
75156;SDS011;63736;50.076;8.198;2024-03-06T00:20:44;28.80;;;9.48;;
75156;SDS011;63736;50.076;8.198;2024-03-06T00:22:14;19.67;;;6.20;;
75156;SDS011;63736;50.076;8.198;2024-03-06T00:23:45;17.60;;;4.33;;
75156;SDS011;63736;50.076;8.198;2024-03-06T00:25:18;8.98;;;2.65;;
75156;SDS011;63736;50.076;8.198;2024-03-06T00:26:48;7.13;;;2.27;;
75156;SDS011;63736;50.076;8.198;2024-03-06T00:28:19;6.67;;;2.07;;
75156;SDS011;63736;50.076;8.198;2024-03-06T00:29:49;5.33;;;1.73;;
75156;SDS011;63736;50.076;8.198;2024-03-06T00:31:19;4.10;;;1.30;;
75156;SDS011;63736;50.076;8.198;2024-03-06T00:32:49;4.53;;;1.60;;
75156;SDS011;63736;50.076;8.198;2024-03-06T00:34:20;3.50;;;1.30;;
75156;SDS011;63736;50.076;8.198;2024-03-06T00:35:50;3.40;;;1.13;;
75156;SDS011;63736;50.076;8.198;2024-03-06T00:37:20;3.70;;;1.23;;
75156;SDS011;63736;50.076;8.198;2024-03-06T00:38:51;5.00;;;1.30;;
75156;SDS011;63736;50.076;8.198;2024-03-06T00:40:21;3.97;;;1.30;;
75156;SDS011;63736;50.076;8.198;2024-03-06T00:41:51;3.80;;;1.20;;
75156;SDS011;63736;50.076;8.198;2024-03-06T00:43:22;3.83;;;1.13;;
75156;SDS011;63736;50.076;8.198;2024-03-06T00:44:52;3.87;;;1.03;;
75156;SDS011;63736;50.076;8.198;2024-03-06T00:46:22;4.00;;;1.00;;
75156;SDS011;63736;50.076;8.198;2024-03-06T00:47:53;4.22;;;1.20;;
75156;SDS011;63736;50.076;8.198;2024-03-06T00:49:23;4.80;;;1.00;;
75156;SDS011;63736;50.076;8.198;2024-03-06T00:50:53;3.53;;;0.80;;
75156;SDS011;63736;50.076;8.198;2024-03-06T00:52:24;4.40;;;1.30;;
75156;SDS011;63736;50.076;8.198;2024-03-06T00:53:54;3.37;;;0.90;;
75156;SDS011;63736;50.076;8.198;2024-03-06T00:55:24;3.20;;;0.80;;
75156;SDS011;63736;50.076;8.198;2024-03-06T00:56:54;3.45;;;1.00;;
75156;SDS011;63736;50.076;8.198;2024-03-06T00:58:25;4.60;;;0.90;;
75156;SDS011;63736;50.076;8.198;2024-03-06T00:59:55;6.10;;;1.30;;
75156;SDS011;63736;50.076;8.198;2024-03-06T01:01:25;5.07;;;1.10;;
75156;SDS011;63736;50.076;8.198;2024-03-06T01:02:57;3.30;;;0.93;;
75156;SDS011;63736;50.076;8.198;2024-03-06T01:04:27;3.73;;;1.00;;
75156;SDS011;63736;50.076;8.198;2024-03-06T01:05:58;4.20;;;1.00;;
75156;SDS011;63736;50.076;8.198;2024-03-06T01:07:28;4.37;;;1.00;;
75156;SDS011;63736;50.076;8.198;2024-03-06T01:08:58;2.80;;;0.90;;
75156;SDS011;63736;50.076;8.198;2024-03-06T01:10:28;3.85;;;1.08;;
75156;SDS011;63736;50.076;8.198;2024-03-06T01:11:59;3.70;;;1.10;;
75156;SDS011;63736;50.076;8.198;2024-03-06T01:13:29;3.70;;;1.10;;
75156;SDS011;63736;50.076;8.198;2024-03-06T01:14:59;3.63;;;1.10;;
75156;SDS011;63736;50.076;8.198;2024-03-06T01:16:30;3.80;;;1.10;;
75156;SDS011;63736;50.076;8.198;2024-03-06T01:18:00;3.63;;;1.00;;
75156;SDS011;63736;50.076;8.198;2024-03-06T01:19:30;3.50;;;1.17;;
75156;SDS011;63736;50.076;8.198;2024-03-06T01:21:01;5.85;;;1.30;;
75156;SDS011;63736;50.076;8.198;2024-03-06T01:22:31;4.77;;;1.30;;
75156;SDS011;63736;50.076;8.198;2024-03-06T01:24:01;3.77;;;1.30;;
75156;SDS011;63736;50.076;8.198;2024-03-06T01:25:31;5.67;;;1.33;;
75156;SDS011;63736;50.076;8.198;2024-03-06T01:27:02;3.53;;;1.07;;
75156;SDS011;63736;50.076;8.198;2024-03-06T01:28:32;4.78;;;1.20;;
75156;SDS011;63736;50.076;8.198;2024-03-06T01:30:03;3.33;;;0.90;;
75156;SDS011;63736;50.076;8.198;2024-03-06T01:31:34;5.45;;;1.10;;
75156;SDS011;63736;50.076;8.198;2024-03-06T01:33:04;3.53;;;1.00;;
75156;SDS011;63736;50.076;8.198;2024-03-06T01:34:35;3.67;;;1.17;;
75156;SDS011;63736;50.076;8.198;2024-03-06T01:36:05;4.07;;;1.20;;
75156;SDS011;63736;50.076;8.198;2024-03-06T01:37:36;4.53;;;1.52;;
75156;SDS011;63736;50.076;8.198;2024-03-06T01:39:06;5.73;;;1.60;;
75156;SDS011;63736;50.076;8.198;2024-03-06T01:40:37;4.30;;;1.20;;
75156;SDS011;63736;50.076;8.198;2024-03-06T01:42:07;5.27;;;1.30;;
75156;SDS011;63736;50.076;8.198;2024-03-06T01:43:37;7.07;;;2.77;;
75156;SDS011;63736;50.076;8.198;2024-03-06T01:45:09;24.70;;;12.38;;
75156;SDS011;63736;50.076;8.198;2024-03-06T01:46:40;21.92;;;10.00;;
75156;SDS011;63736;50.076;8.198;2024-03-06T01:48:10;7.07;;;2.97;;
75156;SDS011;63736;50.076;8.198;2024-03-06T01:49:40;5.73;;;2.10;;
75156;SDS011;63736;50.076;8.198;2024-03-06T01:51:12;5.97;;;2.10;;
75156;SDS011;63736;50.076;8.198;2024-03-06T01:52:42;4.90;;;1.83;;
75156;SDS011;63736;50.076;8.198;2024-03-06T01:54:13;4.35;;;1.13;;
75156;SDS011;63736;50.076;8.198;2024-03-06T01:55:45;4.55;;;1.20;;
75156;SDS011;63736;50.076;8.198;2024-03-06T01:57:16;3.30;;;0.90;;
75156;SDS011;63736;50.076;8.198;2024-03-06T01:58:47;3.30;;;0.90;;
75156;SDS011;63736;50.076;8.198;2024-03-06T02:00:18;3.58;;;0.80;;
75156;SDS011;63736;50.076;8.198;2024-03-06T02:01:48;3.63;;;0.80;;
75156;SDS011;63736;50.076;8.198;2024-03-06T02:03:22;3.60;;;1.00;;
75156;SDS011;63736;50.076;8.198;2024-03-06T02:04:55;3.63;;;0.88;;
75156;SDS011;63736;50.076;8.198;2024-03-06T02:06:27;4.95;;;0.98;;
75156;SDS011;63736;50.076;8.198;2024-03-06T02:07:58;3.40;;;0.90;;
75156;SDS011;63736;50.076;8.198;2024-03-06T02:09:32;4.03;;;1.50;;
75156;SDS011;63736;50.076;8.198;2024-03-06T02:11:02;4.22;;;1.40;;
75156;SDS011;63736;50.076;8.198;2024-03-06T02:12:33;5.07;;;1.90;;
75156;SDS011;63736;50.076;8.198;2024-03-06T02:14:04;4.05;;;1.20;;
75156;SDS011;63736;50.076;8.198;2024-03-06T02:15:36;3.35;;;0.90;;
75156;SDS011;63736;50.076;8.198;2024-03-06T02:17:07;3.30;;;1.07;;
75156;SDS011;63736;50.076;8.198;2024-03-06T02:18:37;3.70;;;1.00;;
75156;SDS011;63736;50.076;8.198;2024-03-06T02:20:07;7.75;;;2.60;;
75156;SDS011;63736;50.076;8.198;2024-03-06T02:21:42;5.03;;;1.60;;
75156;SDS011;63736;50.076;8.198;2024-03-06T02:23:12;5.17;;;1.17;;
75156;SDS011;63736;50.076;8.198;2024-03-06T02:24:44;3.50;;;0.98;;
75156;SDS011;63736;50.076;8.198;2024-03-06T02:26:18;5.55;;;1.00;;
75156;SDS011;63736;50.076;8.198;2024-03-06T02:27:48;3.23;;;0.90;;
75156;SDS011;63736;50.076;8.198;2024-03-06T02:29:18;4.83;;;1.10;;
75156;SDS011;63736;50.076;8.198;2024-03-06T02:30:52;3.50;;;0.90;;
75156;SDS011;63736;50.076;8.198;2024-03-06T02:32:23;4.32;;;1.10;;
75156;SDS011;63736;50.076;8.198;2024-03-06T02:33:54;5.22;;;1.20;;
75156;SDS011;63736;50.076;8.198;2024-03-06T02:35:24;3.33;;;0.90;;
75156;SDS011;63736;50.076;8.198;2024-03-06T02:36:54;3.63;;;0.97;;
75156;SDS011;63736;50.076;8.198;2024-03-06T02:38:25;5.22;;;2.00;;
75156;SDS011;63736;50.076;8.198;2024-03-06T02:39:55;5.13;;;1.80;;
75156;SDS011;63736;50.076;8.198;2024-03-06T02:41:25;5.80;;;1.67;;
75156;SDS011;63736;50.076;8.198;2024-03-06T02:42:56;6.77;;;2.47;;
75156;SDS011;63736;50.076;8.198;2024-03-06T02:44:26;14.18;;;5.97;;
75156;SDS011;63736;50.076;8.198;2024-03-06T02:45:56;12.63;;;5.47;;
75156;SDS011;63736;50.076;8.198;2024-03-06T02:47:27;10.80;;;4.10;;
75156;SDS011;63736;50.076;8.198;2024-03-06T02:48:57;9.23;;;2.97;;
75156;SDS011;63736;50.076;8.198;2024-03-06T02:50:27;7.37;;;2.10;;
75156;SDS011;63736;50.076;8.198;2024-03-06T02:51:58;6.77;;;1.93;;
75156;SDS011;63736;50.076;8.198;2024-03-06T02:53:30;3.95;;;1.10;;
75156;SDS011;63736;50.076;8.198;2024-03-06T02:55:01;4.93;;;1.60;;
75156;SDS011;63736;50.076;8.198;2024-03-06T02:56:32;4.40;;;1.33;;
75156;SDS011;63736;50.076;8.198;2024-03-06T02:58:02;22.53;;;8.27;;
75156;SDS011;63736;50.076;8.198;2024-03-06T02:59:33;21.33;;;7.85;;
75156;SDS011;63736;50.076;8.198;2024-03-06T03:01:04;12.57;;;4.28;;
75156;SDS011;63736;50.076;8.198;2024-03-06T03:02:34;6.27;;;2.20;;
75156;SDS011;63736;50.076;8.198;2024-03-06T03:04:04;6.67;;;2.00;;
75156;SDS011;63736;50.076;8.198;2024-03-06T03:05:36;11.30;;;5.15;;
75156;SDS011;63736;50.076;8.198;2024-03-06T03:07:06;5.37;;;2.10;;
75156;SDS011;63736;50.076;8.198;2024-03-06T03:08:37;4.30;;;1.60;;
75156;SDS011;63736;50.076;8.198;2024-03-06T03:10:08;3.47;;;1.10;;
75156;SDS011;63736;50.076;8.198;2024-03-06T03:11:41;4.82;;;1.30;;
75156;SDS011;63736;50.076;8.198;2024-03-06T03:13:13;4.80;;;1.60;;
75156;SDS011;63736;50.076;8.198;2024-03-06T03:14:43;4.87;;;1.90;;
75156;SDS011;63736;50.076;8.198;2024-03-06T03:16:17;5.00;;;1.70;;
75156;SDS011;63736;50.076;8.198;2024-03-06T03:17:48;6.32;;;1.70;;
75156;SDS011;63736;50.076;8.198;2024-03-06T03:19:18;5.33;;;1.80;;
75156;SDS011;63736;50.076;8.198;2024-03-06T03:20:49;3.50;;;1.17;;
75156;SDS011;63736;50.076;8.198;2024-03-06T03:22:19;5.45;;;1.55;;
75156;SDS011;63736;50.076;8.198;2024-03-06T03:23:49;4.33;;;1.40;;
75156;SDS011;63736;50.076;8.198;2024-03-06T03:25:19;4.13;;;1.60;;
75156;SDS011;63736;50.076;8.198;2024-03-06T03:26:52;5.70;;;1.50;;
75156;SDS011;63736;50.076;8.198;2024-03-06T03:28:22;4.53;;;1.37;;
75156;SDS011;63736;50.076;8.198;2024-03-06T03:29:52;4.65;;;1.10;;
75156;SDS011;63736;50.076;8.198;2024-03-06T03:31:23;3.83;;;1.40;;
75156;SDS011;63736;50.076;8.198;2024-03-06T03:32:54;3.90;;;1.30;;
75156;SDS011;63736;50.076;8.198;2024-03-06T03:34:25;4.43;;;1.37;;
75156;SDS011;63736;50.076;8.198;2024-03-06T03:35:55;4.37;;;1.40;;
75156;SDS011;63736;50.076;8.198;2024-03-06T03:37:25;3.90;;;1.10;;
75156;SDS011;63736;50.076;8.198;2024-03-06T03:38:55;5.13;;;1.50;;
75156;SDS011;63736;50.076;8.198;2024-03-06T03:40:26;6.73;;;3.13;;
75156;SDS011;63736;50.076;8.198;2024-03-06T03:41:56;6.23;;;2.80;;
75156;SDS011;63736;50.076;8.198;2024-03-06T03:43:26;6.30;;;2.50;;
75156;SDS011;63736;50.076;8.198;2024-03-06T03:44:57;6.33;;;3.20;;
75156;SDS011;63736;50.076;8.198;2024-03-06T03:46:27;5.67;;;1.80;;
75156;SDS011;63736;50.076;8.198;2024-03-06T03:47:57;4.93;;;1.97;;
75156;SDS011;63736;50.076;8.198;2024-03-06T03:49:27;6.63;;;3.07;;
75156;SDS011;63736;50.076;8.198;2024-03-06T03:50:58;7.90;;;3.60;;
75156;SDS011;63736;50.076;8.198;2024-03-06T03:52:29;7.22;;;3.40;;
75156;SDS011;63736;50.076;8.198;2024-03-06T03:54:00;8.47;;;2.90;;
75156;SDS011;63736;50.076;8.198;2024-03-06T03:55:30;5.30;;;2.37;;
75156;SDS011;63736;50.076;8.198;2024-03-06T03:57:01;5.10;;;2.03;;
75156;SDS011;63736;50.076;8.198;2024-03-06T03:58:31;5.68;;;2.33;;
75156;SDS011;63736;50.076;8.198;2024-03-06T04:00:01;5.47;;;2.27;;
75156;SDS011;63736;50.076;8.198;2024-03-06T04:01:32;6.27;;;2.40;;
75156;SDS011;63736;50.076;8.198;2024-03-06T04:03:03;4.73;;;2.00;;
75156;SDS011;63736;50.076;8.198;2024-03-06T04:04:33;5.83;;;2.33;;
75156;SDS011;63736;50.076;8.198;2024-03-06T04:06:04;6.20;;;2.30;;
75156;SDS011;63736;50.076;8.198;2024-03-06T04:07:35;5.17;;;2.17;;
75156;SDS011;63736;50.076;8.198;2024-03-06T04:09:05;6.00;;;2.20;;
75156;SDS011;63736;50.076;8.198;2024-03-06T04:10:36;6.23;;;2.33;;
75156;SDS011;63736;50.076;8.198;2024-03-06T04:12:06;5.90;;;1.80;;
75156;SDS011;63736;50.076;8.198;2024-03-06T04:13:36;5.67;;;2.03;;
75156;SDS011;63736;50.076;8.198;2024-03-06T04:15:08;6.05;;;1.70;;
75156;SDS011;63736;50.076;8.198;2024-03-06T04:16:38;5.75;;;2.10;;
75156;SDS011;63736;50.076;8.198;2024-03-06T04:18:09;5.97;;;2.13;;
75156;SDS011;63736;50.076;8.198;2024-03-06T04:19:39;5.10;;;1.90;;
75156;SDS011;63736;50.076;8.198;2024-03-06T04:21:09;6.00;;;1.70;;
75156;SDS011;63736;50.076;8.198;2024-03-06T04:22:40;4.07;;;1.55;;
75156;SDS011;63736;50.076;8.198;2024-03-06T04:24:10;5.33;;;1.67;;
75156;SDS011;63736;50.076;8.198;2024-03-06T04:25:40;5.90;;;1.50;;
75156;SDS011;63736;50.076;8.198;2024-03-06T04:27:11;8.07;;;2.03;;
75156;SDS011;63736;50.076;8.198;2024-03-06T04:28:41;5.55;;;1.80;;
75156;SDS011;63736;50.076;8.198;2024-03-06T04:30:11;5.53;;;1.90;;
75156;SDS011;63736;50.076;8.198;2024-03-06T04:31:42;4.13;;;1.40;;
75156;SDS011;63736;50.076;8.198;2024-03-06T04:33:12;7.37;;;2.40;;
75156;SDS011;63736;50.076;8.198;2024-03-06T04:34:44;6.18;;;3.53;;
75156;SDS011;63736;50.076;8.198;2024-03-06T04:36:16;5.82;;;2.40;;
75156;SDS011;63736;50.076;8.198;2024-03-06T04:37:46;5.13;;;2.00;;
75156;SDS011;63736;50.076;8.198;2024-03-06T04:39:17;3.93;;;1.37;;
75156;SDS011;63736;50.076;8.198;2024-03-06T04:40:47;5.93;;;1.50;;
75156;SDS011;63736;50.076;8.198;2024-03-06T04:42:18;4.97;;;2.30;;
75156;SDS011;63736;50.076;8.198;2024-03-06T04:43:48;4.85;;;1.90;;
75156;SDS011;63736;50.076;8.198;2024-03-06T04:45:20;4.50;;;1.90;;
75156;SDS011;63736;50.076;8.198;2024-03-06T04:46:50;6.33;;;2.10;;
75156;SDS011;63736;50.076;8.198;2024-03-06T04:48:21;6.07;;;2.20;;
75156;SDS011;63736;50.076;8.198;2024-03-06T04:49:51;9.90;;;3.90;;
75156;SDS011;63736;50.076;8.198;2024-03-06T04:51:21;4.87;;;1.90;;
75156;SDS011;63736;50.076;8.198;2024-03-06T04:52:51;7.13;;;2.77;;
75156;SDS011;63736;50.076;8.198;2024-03-06T04:54:22;16.30;;;6.53;;
75156;SDS011;63736;50.076;8.198;2024-03-06T04:55:52;12.67;;;5.50;;
75156;SDS011;63736;50.076;8.198;2024-03-06T04:57:22;9.93;;;4.22;;
75156;SDS011;63736;50.076;8.198;2024-03-06T04:58:52;15.37;;;7.13;;
75156;SDS011;63736;50.076;8.198;2024-03-06T05:00:23;20.90;;;8.60;;
75156;SDS011;63736;50.076;8.198;2024-03-06T05:01:54;9.77;;;4.20;;
75156;SDS011;63736;50.076;8.198;2024-03-06T05:03:24;11.33;;;5.37;;
75156;SDS011;63736;50.076;8.198;2024-03-06T05:04:54;10.37;;;3.50;;
75156;SDS011;63736;50.076;8.198;2024-03-06T05:06:24;6.40;;;2.50;;
75156;SDS011;63736;50.076;8.198;2024-03-06T05:07:55;5.67;;;2.33;;
75156;SDS011;63736;50.076;8.198;2024-03-06T05:09:25;7.40;;;2.83;;
75156;SDS011;63736;50.076;8.198;2024-03-06T05:10:56;8.03;;;3.07;;
75156;SDS011;63736;50.076;8.198;2024-03-06T05:12:27;8.43;;;3.00;;
75156;SDS011;63736;50.076;8.198;2024-03-06T05:13:59;10.13;;;4.88;;
75156;SDS011;63736;50.076;8.198;2024-03-06T05:15:29;11.23;;;5.22;;
75156;SDS011;63736;50.076;8.198;2024-03-06T05:16:59;6.83;;;3.20;;
75156;SDS011;63736;50.076;8.198;2024-03-06T05:18:30;11.17;;;5.90;;
75156;SDS011;63736;50.076;8.198;2024-03-06T05:20:00;8.32;;;4.25;;
75156;SDS011;63736;50.076;8.198;2024-03-06T05:21:32;15.43;;;8.10;;
75156;SDS011;63736;50.076;8.198;2024-03-06T05:23:05;14.77;;;7.83;;
75156;SDS011;63736;50.076;8.198;2024-03-06T05:24:36;7.18;;;3.55;;
75156;SDS011;63736;50.076;8.198;2024-03-06T05:26:06;6.27;;;2.53;;
75156;SDS011;63736;50.076;8.198;2024-03-06T05:27:37;5.93;;;2.30;;
75156;SDS011;63736;50.076;8.198;2024-03-06T05:29:07;4.93;;;1.90;;
75156;SDS011;63736;50.076;8.198;2024-03-06T05:30:38;4.72;;;1.60;;
75156;SDS011;63736;50.076;8.198;2024-03-06T05:32:08;5.33;;;1.80;;
75156;SDS011;63736;50.076;8.198;2024-03-06T05:33:38;5.10;;;1.77;;
75156;SDS011;63736;50.076;8.198;2024-03-06T05:35:09;5.27;;;1.87;;
75156;SDS011;63736;50.076;8.198;2024-03-06T05:36:39;8.50;;;3.78;;
75156;SDS011;63736;50.076;8.198;2024-03-06T05:38:10;7.50;;;4.23;;
75156;SDS011;63736;50.076;8.198;2024-03-06T05:39:40;9.17;;;4.80;;
75156;SDS011;63736;50.076;8.198;2024-03-06T05:41:12;5.80;;;2.60;;
75156;SDS011;63736;50.076;8.198;2024-03-06T05:42:42;12.18;;;2.60;;
75156;SDS011;63736;50.076;8.198;2024-03-06T05:44:13;6.00;;;2.10;;
75156;SDS011;63736;50.076;8.198;2024-03-06T05:45:43;4.37;;;1.87;;
75156;SDS011;63736;50.076;8.198;2024-03-06T05:47:13;4.87;;;1.70;;
75156;SDS011;63736;50.076;8.198;2024-03-06T05:48:43;5.47;;;2.10;;
75156;SDS011;63736;50.076;8.198;2024-03-06T05:50:14;6.90;;;2.27;;
75156;SDS011;63736;50.076;8.198;2024-03-06T05:51:45;5.32;;;1.80;;
75156;SDS011;63736;50.076;8.198;2024-03-06T05:53:15;5.80;;;2.10;;
75156;SDS011;63736;50.076;8.198;2024-03-06T05:54:46;4.97;;;1.60;;
75156;SDS011;63736;50.076;8.198;2024-03-06T05:56:19;4.63;;;1.77;;
75156;SDS011;63736;50.076;8.198;2024-03-06T05:57:49;5.60;;;2.20;;
75156;SDS011;63736;50.076;8.198;2024-03-06T05:59:20;6.90;;;2.30;;
75156;SDS011;63736;50.076;8.198;2024-03-06T06:00:50;9.60;;;3.07;;
75156;SDS011;63736;50.076;8.198;2024-03-06T06:02:20;8.20;;;2.53;;
75156;SDS011;63736;50.076;8.198;2024-03-06T06:03:51;7.87;;;2.90;;
75156;SDS011;63736;50.076;8.198;2024-03-06T06:05:21;8.83;;;3.20;;
75156;SDS011;63736;50.076;8.198;2024-03-06T06:06:52;9.18;;;3.42;;
75156;SDS011;63736;50.076;8.198;2024-03-06T06:08:23;8.60;;;3.13;;
75156;SDS011;63736;50.076;8.198;2024-03-06T06:09:54;6.87;;;2.73;;
75156;SDS011;63736;50.076;8.198;2024-03-06T06:11:24;7.32;;;2.90;;
75156;SDS011;63736;50.076;8.198;2024-03-06T06:12:54;7.60;;;3.13;;
75156;SDS011;63736;50.076;8.198;2024-03-06T06:14:25;7.13;;;2.70;;
75156;SDS011;63736;50.076;8.198;2024-03-06T06:16:00;6.15;;;2.65;;
75156;SDS011;63736;50.076;8.198;2024-03-06T06:17:32;6.63;;;2.47;;
75156;SDS011;63736;50.076;8.198;2024-03-06T06:19:04;6.80;;;3.00;;
75156;SDS011;63736;50.076;8.198;2024-03-06T06:20:34;5.47;;;2.00;;
75156;SDS011;63736;50.076;8.198;2024-03-06T06:22:04;8.17;;;2.37;;
75156;SDS011;63736;50.076;8.198;2024-03-06T06:23:34;5.77;;;2.00;;
75156;SDS011;63736;50.076;8.198;2024-03-06T06:25:05;5.63;;;2.50;;
75156;SDS011;63736;50.076;8.198;2024-03-06T06:26:37;5.50;;;1.73;;
75156;SDS011;63736;50.076;8.198;2024-03-06T06:28:07;5.57;;;1.90;;
75156;SDS011;63736;50.076;8.198;2024-03-06T06:29:40;5.68;;;2.05;;
75156;SDS011;63736;50.076;8.198;2024-03-06T06:31:11;4.65;;;1.50;;
75156;SDS011;63736;50.076;8.198;2024-03-06T06:32:42;8.43;;;3.33;;
75156;SDS011;63736;50.076;8.198;2024-03-06T06:34:13;7.07;;;2.50;;
75156;SDS011;63736;50.076;8.198;2024-03-06T06:35:43;6.67;;;2.43;;
75156;SDS011;63736;50.076;8.198;2024-03-06T06:37:13;6.95;;;3.13;;
75156;SDS011;63736;50.076;8.198;2024-03-06T06:38:45;9.10;;;4.40;;
75156;SDS011;63736;50.076;8.198;2024-03-06T06:40:17;9.88;;;3.83;;
75156;SDS011;63736;50.076;8.198;2024-03-06T06:41:47;11.32;;;3.70;;
75156;SDS011;63736;50.076;8.198;2024-03-06T06:43:18;8.70;;;3.60;;
75156;SDS011;63736;50.076;8.198;2024-03-06T06:44:48;9.27;;;3.70;;
75156;SDS011;63736;50.076;8.198;2024-03-06T06:46:18;8.50;;;2.87;;
75156;SDS011;63736;50.076;8.198;2024-03-06T06:47:49;6.13;;;2.83;;
75156;SDS011;63736;50.076;8.198;2024-03-06T06:49:20;7.38;;;3.13;;
75156;SDS011;63736;50.076;8.198;2024-03-06T06:50:50;6.33;;;2.87;;
75156;SDS011;63736;50.076;8.198;2024-03-06T06:52:20;6.57;;;2.77;;
75156;SDS011;63736;50.076;8.198;2024-03-06T06:53:50;7.27;;;2.73;;
75156;SDS011;63736;50.076;8.198;2024-03-06T06:55:21;6.40;;;3.30;;
75156;SDS011;63736;50.076;8.198;2024-03-06T06:56:52;7.27;;;3.87;;
75156;SDS011;63736;50.076;8.198;2024-03-06T06:58:24;8.52;;;5.70;;
75156;SDS011;63736;50.076;8.198;2024-03-06T06:59:54;11.95;;;7.30;;
75156;SDS011;63736;50.076;8.198;2024-03-06T07:01:24;10.93;;;7.27;;
75156;SDS011;63736;50.076;8.198;2024-03-06T07:02:55;9.40;;;5.20;;
75156;SDS011;63736;50.076;8.198;2024-03-06T07:04:28;9.63;;;4.85;;
75156;SDS011;63736;50.076;8.198;2024-03-06T07:05:58;11.80;;;4.23;;
75156;SDS011;63736;50.076;8.198;2024-03-06T07:07:28;8.03;;;3.73;;
75156;SDS011;63736;50.076;8.198;2024-03-06T07:08:59;9.63;;;4.40;;
75156;SDS011;63736;50.076;8.198;2024-03-06T07:10:29;13.23;;;5.07;;
75156;SDS011;63736;50.076;8.198;2024-03-06T07:11:59;12.47;;;5.17;;
75156;SDS011;63736;50.076;8.198;2024-03-06T07:13:30;9.25;;;4.70;;
75156;SDS011;63736;50.076;8.198;2024-03-06T07:15:00;9.03;;;4.10;;
75156;SDS011;63736;50.076;8.198;2024-03-06T07:16:32;7.93;;;3.58;;
75156;SDS011;63736;50.076;8.198;2024-03-06T07:18:02;8.23;;;3.70;;
75156;SDS011;63736;50.076;8.198;2024-03-06T07:19:33;7.30;;;3.40;;
75156;SDS011;63736;50.076;8.198;2024-03-06T07:21:03;8.93;;;3.08;;
75156;SDS011;63736;50.076;8.198;2024-03-06T07:22:33;10.20;;;3.80;;
75156;SDS011;63736;50.076;8.198;2024-03-06T07:24:04;9.07;;;3.80;;
75156;SDS011;63736;50.076;8.198;2024-03-06T07:25:34;7.10;;;3.15;;
75156;SDS011;63736;50.076;8.198;2024-03-06T07:27:05;12.10;;;3.67;;
75156;SDS011;63736;50.076;8.198;2024-03-06T07:28:35;7.13;;;2.70;;
75156;SDS011;63736;50.076;8.198;2024-03-06T07:30:07;8.07;;;2.88;;
75156;SDS011;63736;50.076;8.198;2024-03-06T07:31:38;8.80;;;3.72;;
75156;SDS011;63736;50.076;8.198;2024-03-06T07:33:09;8.10;;;3.38;;
75156;SDS011;63736;50.076;8.198;2024-03-06T07:34:39;9.63;;;3.37;;
75156;SDS011;63736;50.076;8.198;2024-03-06T07:36:09;10.47;;;4.53;;
75156;SDS011;63736;50.076;8.198;2024-03-06T07:37:40;9.63;;;4.80;;
75156;SDS011;63736;50.076;8.198;2024-03-06T07:39:10;9.33;;;4.80;;
75156;SDS011;63736;50.076;8.198;2024-03-06T07:40:42;9.52;;;4.50;;
75156;SDS011;63736;50.076;8.198;2024-03-06T07:42:12;17.35;;;5.28;;
75156;SDS011;63736;50.076;8.198;2024-03-06T07:43:43;10.27;;;4.60;;
75156;SDS011;63736;50.076;8.198;2024-03-06T07:45:13;11.50;;;4.87;;
75156;SDS011;63736;50.076;8.198;2024-03-06T07:46:44;9.52;;;4.18;;
75156;SDS011;63736;50.076;8.198;2024-03-06T07:48:14;9.63;;;4.70;;
75156;SDS011;63736;50.076;8.198;2024-03-06T07:49:44;10.37;;;4.40;;
75156;SDS011;63736;50.076;8.198;2024-03-06T07:51:15;8.93;;;4.40;;
75156;SDS011;63736;50.076;8.198;2024-03-06T07:52:46;11.37;;;5.23;;
75156;SDS011;63736;50.076;8.198;2024-03-06T07:54:16;10.05;;;4.80;;
75156;SDS011;63736;50.076;8.198;2024-03-06T07:55:46;10.60;;;4.93;;
75156;SDS011;63736;50.076;8.198;2024-03-06T07:57:17;10.30;;;5.27;;
75156;SDS011;63736;50.076;8.198;2024-03-06T07:58:48;10.95;;;5.57;;
75156;SDS011;63736;50.076;8.198;2024-03-06T08:00:18;11.90;;;5.83;;
75156;SDS011;63736;50.076;8.198;2024-03-06T08:01:49;11.70;;;5.53;;
75156;SDS011;63736;50.076;8.198;2024-03-06T08:03:20;12.40;;;5.43;;
75156;SDS011;63736;50.076;8.198;2024-03-06T08:04:50;12.48;;;6.13;;
75156;SDS011;63736;50.076;8.198;2024-03-06T08:06:20;12.03;;;5.73;;
75156;SDS011;63736;50.076;8.198;2024-03-06T08:07:51;12.07;;;5.97;;
75156;SDS011;63736;50.076;8.198;2024-03-06T08:09:21;10.50;;;5.30;;
75156;SDS011;63736;50.076;8.198;2024-03-06T08:10:53;11.20;;;5.57;;
75156;SDS011;63736;50.076;8.198;2024-03-06T08:12:23;14.23;;;6.57;;
75156;SDS011;63736;50.076;8.198;2024-03-06T08:13:57;12.00;;;5.97;;
75156;SDS011;63736;50.076;8.198;2024-03-06T08:15:28;11.60;;;5.85;;
75156;SDS011;63736;50.076;8.198;2024-03-06T08:16:59;11.75;;;5.90;;
75156;SDS011;63736;50.076;8.198;2024-03-06T08:18:29;11.07;;;5.73;;
75156;SDS011;63736;50.076;8.198;2024-03-06T08:20:01;11.07;;;5.22;;
75156;SDS011;63736;50.076;8.198;2024-03-06T08:21:36;15.20;;;6.97;;
75156;SDS011;63736;50.076;8.198;2024-03-06T08:23:07;14.03;;;6.13;;
75156;SDS011;63736;50.076;8.198;2024-03-06T08:24:37;15.52;;;5.88;;
75156;SDS011;63736;50.076;8.198;2024-03-06T08:26:08;10.87;;;5.40;;
75156;SDS011;63736;50.076;8.198;2024-03-06T08:27:41;11.37;;;5.43;;
75156;SDS011;63736;50.076;8.198;2024-03-06T08:29:12;11.55;;;5.30;;
75156;SDS011;63736;50.076;8.198;2024-03-06T08:30:43;10.05;;;5.40;;
75156;SDS011;63736;50.076;8.198;2024-03-06T08:32:14;10.65;;;5.38;;
75156;SDS011;63736;50.076;8.198;2024-03-06T08:33:44;10.73;;;5.67;;
75156;SDS011;63736;50.076;8.198;2024-03-06T08:35:14;11.10;;;5.53;;
75156;SDS011;63736;50.076;8.198;2024-03-06T08:36:45;10.10;;;5.20;;
75156;SDS011;63736;50.076;8.198;2024-03-06T08:38:15;11.07;;;5.57;;
75156;SDS011;63736;50.076;8.198;2024-03-06T08:39:47;11.70;;;5.87;;
75156;SDS011;63736;50.076;8.198;2024-03-06T08:41:18;10.98;;;5.63;;
75156;SDS011;63736;50.076;8.198;2024-03-06T08:42:50;10.48;;;4.95;;
75156;SDS011;63736;50.076;8.198;2024-03-06T08:44:20;9.77;;;5.40;;
75156;SDS011;63736;50.076;8.198;2024-03-06T08:45:50;11.53;;;6.07;;
75156;SDS011;63736;50.076;8.198;2024-03-06T08:47:20;13.17;;;5.50;;
75156;SDS011;63736;50.076;8.198;2024-03-06T08:48:51;9.73;;;5.20;;
75156;SDS011;63736;50.076;8.198;2024-03-06T08:50:21;10.97;;;5.50;;
75156;SDS011;63736;50.076;8.198;2024-03-06T08:51:51;10.13;;;5.70;;
75156;SDS011;63736;50.076;8.198;2024-03-06T08:53:21;15.77;;;5.83;;
75156;SDS011;63736;50.076;8.198;2024-03-06T08:54:52;10.63;;;5.50;;
75156;SDS011;63736;50.076;8.198;2024-03-06T08:56:23;12.63;;;5.30;;
75156;SDS011;63736;50.076;8.198;2024-03-06T08:57:53;8.93;;;4.95;;
75156;SDS011;63736;50.076;8.198;2024-03-06T08:59:24;9.87;;;5.17;;
75156;SDS011;63736;50.076;8.198;2024-03-06T09:00:54;10.40;;;5.17;;
75156;SDS011;63736;50.076;8.198;2024-03-06T09:02:25;10.80;;;5.40;;
75156;SDS011;63736;50.076;8.198;2024-03-06T09:03:55;11.77;;;5.07;;
75156;SDS011;63736;50.076;8.198;2024-03-06T09:05:27;8.80;;;4.60;;